sensor_id;sensor_type;location;lat;lon;timestamp;pressure;altitude;pressure_sealevel;temperature
35582;BMP180;21687;48.900;9.188;2024-01-15T00:01:45;97355.00;;;-3.80
35582;BMP180;21687;48.900;9.188;2024-01-15T00:04:11;97358.00;;;-4.00
35582;BMP180;21687;48.900;9.188;2024-01-15T00:06:38;97343.00;;;-4.00
35582;BMP180;21687;48.900;9.188;2024-01-15T00:09:04;97347.00;;;-4.10
35582;BMP180;21687;48.900;9.188;2024-01-15T00:11:32;97351.00;;;-4.10
35582;BMP180;21687;48.900;9.188;2024-01-15T00:13:59;97344.00;;;-4.30
35582;BMP180;21687;48.900;9.188;2024-01-15T00:16:26;97347.00;;;-4.30
35582;BMP180;21687;48.900;9.188;2024-01-15T00:18:52;97336.00;;;-4.20
35582;BMP180;21687;48.900;9.188;2024-01-15T00:21:19;97330.00;;;-4.30
35582;BMP180;21687;48.900;9.188;2024-01-15T00:23:45;97331.00;;;-4.30
35582;BMP180;21687;48.900;9.188;2024-01-15T00:26:12;97338.00;;;-4.20
35582;BMP180;21687;48.900;9.188;2024-01-15T00:28:39;97320.00;;;-4.20
35582;BMP180;21687;48.900;9.188;2024-01-15T00:31:05;97317.00;;;-4.10
35582;BMP180;21687;48.900;9.188;2024-01-15T00:33:32;97323.00;;;-4.10
35582;BMP180;21687;48.900;9.188;2024-01-15T00:35:58;97312.00;;;-4.00
35582;BMP180;21687;48.900;9.188;2024-01-15T00:38:24;97315.00;;;-4.10
35582;BMP180;21687;48.900;9.188;2024-01-15T00:40:51;97313.00;;;-3.90
35582;BMP180;21687;48.900;9.188;2024-01-15T00:43:17;97316.00;;;-3.90
35582;BMP180;21687;48.900;9.188;2024-01-15T00:45:45;97313.00;;;-3.80
35582;BMP180;21687;48.900;9.188;2024-01-15T00:48:11;97321.00;;;-3.70
35582;BMP180;21687;48.900;9.188;2024-01-15T00:50:37;97316.00;;;-3.60
35582;BMP180;21687;48.900;9.188;2024-01-15T00:53:04;97319.00;;;-3.50
35582;BMP180;21687;48.900;9.188;2024-01-15T00:55:30;97319.00;;;-3.40
35582;BMP180;21687;48.900;9.188;2024-01-15T00:57:57;97327.00;;;-3.40
35582;BMP180;21687;48.900;9.188;2024-01-15T01:00:23;97326.00;;;-3.30
35582;BMP180;21687;48.900;9.188;2024-01-15T01:02:49;97325.00;;;-3.30
35582;BMP180;21687;48.900;9.188;2024-01-15T01:05:16;97322.00;;;-3.20
35582;BMP180;21687;48.900;9.188;2024-01-15T01:07:42;97323.00;;;-3.00
35582;BMP180;21687;48.900;9.188;2024-01-15T01:10:09;97335.00;;;-3.00
35582;BMP180;21687;48.900;9.188;2024-01-15T01:12:35;97312.00;;;-2.90
35582;BMP180;21687;48.900;9.188;2024-01-15T01:15:02;97319.00;;;-2.80
35582;BMP180;21687;48.900;9.188;2024-01-15T01:17:28;97322.00;;;-2.70
35582;BMP180;21687;48.900;9.188;2024-01-15T01:19:56;97328.00;;;-2.60
35582;BMP180;21687;48.900;9.188;2024-01-15T01:22:22;97315.00;;;-2.60
35582;BMP180;21687;48.900;9.188;2024-01-15T01:24:49;97313.00;;;-2.50
35582;BMP180;21687;48.900;9.188;2024-01-15T01:27:15;97308.00;;;-2.40
35582;BMP180;21687;48.900;9.188;2024-01-15T01:29:41;97306.00;;;-2.30
35582;BMP180;21687;48.900;9.188;2024-01-15T01:32:07;97302.00;;;-2.20
35582;BMP180;21687;48.900;9.188;2024-01-15T01:34:40;97310.00;;;-2.20
35582;BMP180;21687;48.900;9.188;2024-01-15T01:37:10;97302.00;;;-2.20
35582;BMP180;21687;48.900;9.188;2024-01-15T01:39:39;97306.00;;;-2.10
35582;BMP180;21687;48.900;9.188;2024-01-15T01:42:06;97312.00;;;-2.00
35582;BMP180;21687;48.900;9.188;2024-01-15T01:44:33;97309.00;;;-2.00
35582;BMP180;21687;48.900;9.188;2024-01-15T01:47:00;97301.00;;;-2.00
35582;BMP180;21687;48.900;9.188;2024-01-15T01:49:27;97304.00;;;-2.10
35582;BMP180;21687;48.900;9.188;2024-01-15T01:51:57;97293.00;;;-2.00
35582;BMP180;21687;48.900;9.188;2024-01-15T01:54:25;97297.00;;;-2.00
35582;BMP180;21687;48.900;9.188;2024-01-15T01:56:52;97297.00;;;-1.90
35582;BMP180;21687;48.900;9.188;2024-01-15T01:59:18;97295.00;;;-1.90
35582;BMP180;21687;48.900;9.188;2024-01-15T02:01:45;97305.00;;;-1.90
35582;BMP180;21687;48.900;9.188;2024-01-15T02:04:12;97297.00;;;-1.90
35582;BMP180;21687;48.900;9.188;2024-01-15T02:06:38;97302.00;;;-1.80
35582;BMP180;21687;48.900;9.188;2024-01-15T02:09:04;97288.00;;;-1.80
35582;BMP180;21687;48.900;9.188;2024-01-15T02:11:34;97299.00;;;-1.70
35582;BMP180;21687;48.900;9.188;2024-01-15T02:14:01;97293.00;;;-1.60
35582;BMP180;21687;48.900;9.188;2024-01-15T02:16:27;97294.00;;;-1.70
35582;BMP180;21687;48.900;9.188;2024-01-15T02:18:53;97309.00;;;-1.60
35582;BMP180;21687;48.900;9.188;2024-01-15T02:21:19;97299.00;;;-1.60
35582;BMP180;21687;48.900;9.188;2024-01-15T02:23:46;97289.00;;;-1.60
35582;BMP180;21687;48.900;9.188;2024-01-15T02:26:12;97280.00;;;-1.60
35582;BMP180;21687;48.900;9.188;2024-01-15T02:28:39;97288.00;;;-1.50
35582;BMP180;21687;48.900;9.188;2024-01-15T02:31:07;97288.00;;;-1.50
35582;BMP180;21687;48.900;9.188;2024-01-15T02:33:33;97290.00;;;-1.60
35582;BMP180;21687;48.900;9.188;2024-01-15T02:36:00;97281.00;;;-1.60
35582;BMP180;21687;48.900;9.188;2024-01-15T02:38:26;97284.00;;;-1.60
35582;BMP180;21687;48.900;9.188;2024-01-15T02:40:52;97288.00;;;-1.70
35582;BMP180;21687;48.900;9.188;2024-01-15T02:43:18;97291.00;;;-1.70
35582;BMP180;21687;48.900;9.188;2024-01-15T02:45:45;97282.00;;;-1.70
35582;BMP180;21687;48.900;9.188;2024-01-15T02:48:12;97293.00;;;-1.80
35582;BMP180;21687;48.900;9.188;2024-01-15T02:50:39;97296.00;;;-1.80
35582;BMP180;21687;48.900;9.188;2024-01-15T02:53:05;97288.00;;;-1.80
35582;BMP180;21687;48.900;9.188;2024-01-15T02:55:31;97286.00;;;-1.80
35582;BMP180;21687;48.900;9.188;2024-01-15T02:57:59;97288.00;;;-1.90
35582;BMP180;21687;48.900;9.188;2024-01-15T03:00:26;97278.00;;;-1.90
35582;BMP180;21687;48.900;9.188;2024-01-15T03:02:52;97280.00;;;-1.90
35582;BMP180;21687;48.900;9.188;2024-01-15T03:05:18;97292.00;;;-1.90
35582;BMP180;21687;48.900;9.188;2024-01-15T03:07:46;97284.00;;;-1.90
35582;BMP180;21687;48.900;9.188;2024-01-15T03:10:12;97276.00;;;-1.90
35582;BMP180;21687;48.900;9.188;2024-01-15T03:12:39;97281.00;;;-1.80
35582;BMP180;21687;48.900;9.188;2024-01-15T03:15:06;97279.00;;;-1.90
35582;BMP180;21687;48.900;9.188;2024-01-15T03:17:32;97279.00;;;-1.80
35582;BMP180;21687;48.900;9.188;2024-01-15T03:19:58;97280.00;;;-1.80
35582;BMP180;21687;48.900;9.188;2024-01-15T03:22:25;97275.00;;;-1.80
35582;BMP180;21687;48.900;9.188;2024-01-15T03:24:52;97273.00;;;-1.90
35582;BMP180;21687;48.900;9.188;2024-01-15T03:27:18;97268.00;;;-1.90
35582;BMP180;21687;48.900;9.188;2024-01-15T03:29:45;97266.00;;;-1.80
35582;BMP180;21687;48.900;9.188;2024-01-15T03:32:11;97264.00;;;-1.80
35582;BMP180;21687;48.900;9.188;2024-01-15T03:34:37;97272.00;;;-1.80
35582;BMP180;21687;48.900;9.188;2024-01-15T03:37:03;97268.00;;;-1.70
35582;BMP180;21687;48.900;9.188;2024-01-15T03:39:30;97256.00;;;-1.70
35582;BMP180;21687;48.900;9.188;2024-01-15T03:41:56;97262.00;;;-1.60
35582;BMP180;21687;48.900;9.188;2024-01-15T03:44:23;97273.00;;;-1.50
35582;BMP180;21687;48.900;9.188;2024-01-15T03:46:49;97269.00;;;-1.50
35582;BMP180;21687;48.900;9.188;2024-01-15T03:49:16;97267.00;;;-1.40
35582;BMP180;21687;48.900;9.188;2024-01-15T03:51:42;97269.00;;;-1.40
35582;BMP180;21687;48.900;9.188;2024-01-15T03:54:08;97262.00;;;-1.30
35582;BMP180;21687;48.900;9.188;2024-01-15T03:56:34;97245.00;;;-1.30
35582;BMP180;21687;48.900;9.188;2024-01-15T03:59:01;97254.00;;;-1.30
35582;BMP180;21687;48.900;9.188;2024-01-15T04:01:27;97253.00;;;-1.20
35582;BMP180;21687;48.900;9.188;2024-01-15T04:03:54;97245.00;;;-1.20
35582;BMP180;21687;48.900;9.188;2024-01-15T04:06:20;97252.00;;;-1.20
35582;BMP180;21687;48.900;9.188;2024-01-15T04:08:46;97243.00;;;-1.20
35582;BMP180;21687;48.900;9.188;2024-01-15T04:11:13;97244.00;;;-1.20
35582;BMP180;21687;48.900;9.188;2024-01-15T04:13:39;97243.00;;;-1.10
35582;BMP180;21687;48.900;9.188;2024-01-15T04:16:05;97246.00;;;-1.10
35582;BMP180;21687;48.900;9.188;2024-01-15T04:18:31;97235.00;;;-1.10
35582;BMP180;21687;48.900;9.188;2024-01-15T04:20:58;97235.00;;;-1.10
35582;BMP180;21687;48.900;9.188;2024-01-15T04:23:24;97228.00;;;-1.10
35582;BMP180;21687;48.900;9.188;2024-01-15T04:25:50;97223.00;;;-1.10
35582;BMP180;21687;48.900;9.188;2024-01-15T04:28:16;97233.00;;;-1.00
35582;BMP180;21687;48.900;9.188;2024-01-15T04:30:43;97229.00;;;-1.00
35582;BMP180;21687;48.900;9.188;2024-01-15T04:33:09;97227.00;;;-0.90
35582;BMP180;21687;48.900;9.188;2024-01-15T04:35:36;97215.00;;;-0.80
35582;BMP180;21687;48.900;9.188;2024-01-15T04:38:03;97210.00;;;-0.80
35582;BMP180;21687;48.900;9.188;2024-01-15T04:40:29;97195.00;;;-0.80
35582;BMP180;21687;48.900;9.188;2024-01-15T04:42:56;97211.00;;;-0.80
35582;BMP180;21687;48.900;9.188;2024-01-15T04:45:22;97226.00;;;-0.80
35582;BMP180;21687;48.900;9.188;2024-01-15T04:47:55;97236.00;;;-0.70
35582;BMP180;21687;48.900;9.188;2024-01-15T04:50:24;97232.00;;;-0.70
35582;BMP180;21687;48.900;9.188;2024-01-15T04:52:51;97239.00;;;-0.70
35582;BMP180;21687;48.900;9.188;2024-01-15T04:55:17;97234.00;;;-0.70
35582;BMP180;21687;48.900;9.188;2024-01-15T04:57:43;97235.00;;;-0.70
35582;BMP180;21687;48.900;9.188;2024-01-15T05:00:10;97236.00;;;-0.60
35582;BMP180;21687;48.900;9.188;2024-01-15T05:02:37;97231.00;;;-0.70
35582;BMP180;21687;48.900;9.188;2024-01-15T05:05:03;97227.00;;;-0.60
35582;BMP180;21687;48.900;9.188;2024-01-15T05:07:29;97228.00;;;-0.70
35582;BMP180;21687;48.900;9.188;2024-01-15T05:09:56;97228.00;;;-0.60
35582;BMP180;21687;48.900;9.188;2024-01-15T05:12:22;97225.00;;;-0.60
35582;BMP180;21687;48.900;9.188;2024-01-15T05:14:48;97212.00;;;-0.60
35582;BMP180;21687;48.900;9.188;2024-01-15T05:17:15;97219.00;;;-0.60
35582;BMP180;21687;48.900;9.188;2024-01-15T05:19:41;97217.00;;;-0.60
35582;BMP180;21687;48.900;9.188;2024-01-15T05:22:07;97221.00;;;-0.50
35582;BMP180;21687;48.900;9.188;2024-01-15T05:24:34;97218.00;;;-0.60
35582;BMP180;21687;48.900;9.188;2024-01-15T05:27:00;97208.00;;;-0.60
35582;BMP180;21687;48.900;9.188;2024-01-15T05:29:26;97209.00;;;-0.60
35582;BMP180;21687;48.900;9.188;2024-01-15T05:31:53;97194.00;;;-0.60
35582;BMP180;21687;48.900;9.188;2024-01-15T05:34:19;97209.00;;;-0.60
35582;BMP180;21687;48.900;9.188;2024-01-15T05:36:45;97226.00;;;-0.60
35582;BMP180;21687;48.900;9.188;2024-01-15T05:39:14;97216.00;;;-0.50
35582;BMP180;21687;48.900;9.188;2024-01-15T05:41:40;97209.00;;;-0.50
35582;BMP180;21687;48.900;9.188;2024-01-15T05:44:06;97204.00;;;-0.50
35582;BMP180;21687;48.900;9.188;2024-01-15T05:46:32;97209.00;;;-0.60
35582;BMP180;21687;48.900;9.188;2024-01-15T05:48:59;97211.00;;;-0.50
35582;BMP180;21687;48.900;9.188;2024-01-15T05:51:25;97204.00;;;-0.50
35582;BMP180;21687;48.900;9.188;2024-01-15T05:53:51;97195.00;;;-0.60
35582;BMP180;21687;48.900;9.188;2024-01-15T05:56:18;97200.00;;;-0.50
35582;BMP180;21687;48.900;9.188;2024-01-15T05:58:44;97189.00;;;-0.60
35582;BMP180;21687;48.900;9.188;2024-01-15T06:01:10;97193.00;;;-0.50
35582;BMP180;21687;48.900;9.188;2024-01-15T06:03:37;97195.00;;;-0.50
35582;BMP180;21687;48.900;9.188;2024-01-15T06:06:03;97192.00;;;-0.50
35582;BMP180;21687;48.900;9.188;2024-01-15T06:08:29;97191.00;;;-0.60
35582;BMP180;21687;48.900;9.188;2024-01-15T06:10:57;97186.00;;;-0.60
35582;BMP180;21687;48.900;9.188;2024-01-15T06:13:23;97189.00;;;-0.50
35582;BMP180;21687;48.900;9.188;2024-01-15T06:15:49;97190.00;;;-0.60
35582;BMP180;21687;48.900;9.188;2024-01-15T06:18:16;97180.00;;;-0.60
35582;BMP180;21687;48.900;9.188;2024-01-15T06:20:42;97191.00;;;-0.60
35582;BMP180;21687;48.900;9.188;2024-01-15T06:23:09;97181.00;;;-0.50
35582;BMP180;21687;48.900;9.188;2024-01-15T06:25:35;97181.00;;;-0.50
35582;BMP180;21687;48.900;9.188;2024-01-15T06:28:01;97176.00;;;-0.40
35582;BMP180;21687;48.900;9.188;2024-01-15T06:30:27;97180.00;;;-0.50
35582;BMP180;21687;48.900;9.188;2024-01-15T06:32:56;97177.00;;;-0.40
35582;BMP180;21687;48.900;9.188;2024-01-15T06:35:22;97177.00;;;-0.50
35582;BMP180;21687;48.900;9.188;2024-01-15T06:37:48;97171.00;;;-0.50
35582;BMP180;21687;48.900;9.188;2024-01-15T06:40:14;97170.00;;;-0.40
35582;BMP180;21687;48.900;9.188;2024-01-15T06:42:41;97181.00;;;-0.40
35582;BMP180;21687;48.900;9.188;2024-01-15T06:45:08;97179.00;;;-0.40
35582;BMP180;21687;48.900;9.188;2024-01-15T06:47:34;97186.00;;;-0.40
35582;BMP180;21687;48.900;9.188;2024-01-15T06:50:01;97188.00;;;-0.40
35582;BMP180;21687;48.900;9.188;2024-01-15T06:52:27;97189.00;;;-0.40
35582;BMP180;21687;48.900;9.188;2024-01-15T06:54:53;97186.00;;;-0.40
35582;BMP180;21687;48.900;9.188;2024-01-15T06:57:19;97190.00;;;-0.30
35582;BMP180;21687;48.900;9.188;2024-01-15T06:59:46;97182.00;;;-0.40
35582;BMP180;21687;48.900;9.188;2024-01-15T07:02:12;97187.00;;;-0.40
35582;BMP180;21687;48.900;9.188;2024-01-15T07:04:39;97185.00;;;-0.40
35582;BMP180;21687;48.900;9.188;2024-01-15T07:07:05;97185.00;;;-0.40
35582;BMP180;21687;48.900;9.188;2024-01-15T07:09:31;97178.00;;;-0.40
35582;BMP180;21687;48.900;9.188;2024-01-15T07:11:58;97183.00;;;-0.40
35582;BMP180;21687;48.900;9.188;2024-01-15T07:14:26;97182.00;;;-0.30
35582;BMP180;21687;48.900;9.188;2024-01-15T07:16:52;97189.00;;;-0.30
35582;BMP180;21687;48.900;9.188;2024-01-15T07:19:19;97183.00;;;-0.30
35582;BMP180;21687;48.900;9.188;2024-01-15T07:21:45;97185.00;;;-0.30
35582;BMP180;21687;48.900;9.188;2024-01-15T07:24:11;97175.00;;;-0.30
35582;BMP180;21687;48.900;9.188;2024-01-15T07:26:37;97182.00;;;-0.30
35582;BMP180;21687;48.900;9.188;2024-01-15T07:29:04;97191.00;;;-0.30
35582;BMP180;21687;48.900;9.188;2024-01-15T07:31:30;97193.00;;;-0.20
35582;BMP180;21687;48.900;9.188;2024-01-15T07:33:56;97192.00;;;-0.20
35582;BMP180;21687;48.900;9.188;2024-01-15T07:36:22;97187.00;;;-0.10
35582;BMP180;21687;48.900;9.188;2024-01-15T07:38:49;97184.00;;;-0.10
35582;BMP180;21687;48.900;9.188;2024-01-15T07:41:15;97191.00;;;-0.10
35582;BMP180;21687;48.900;9.188;2024-01-15T07:43:41;97187.00;;;-0.10
35582;BMP180;21687;48.900;9.188;2024-01-15T07:46:08;97185.00;;;-0.10
35582;BMP180;21687;48.900;9.188;2024-01-15T07:48:34;97179.00;;;-0.10
35582;BMP180;21687;48.900;9.188;2024-01-15T07:51:00;97189.00;;;-0.10
35582;BMP180;21687;48.900;9.188;2024-01-15T07:53:27;97189.00;;;-0.10
35582;BMP180;21687;48.900;9.188;2024-01-15T07:55:54;97191.00;;;0.00
35582;BMP180;21687;48.900;9.188;2024-01-15T07:58:20;97194.00;;;0.10
35582;BMP180;21687;48.900;9.188;2024-01-15T08:00:46;97197.00;;;0.10
35582;BMP180;21687;48.900;9.188;2024-01-15T08:03:12;97193.00;;;0.00
35582;BMP180;21687;48.900;9.188;2024-01-15T08:05:39;97194.00;;;0.00
35582;BMP180;21687;48.900;9.188;2024-01-15T08:08:05;97201.00;;;0.10
35582;BMP180;21687;48.900;9.188;2024-01-15T08:10:32;97194.00;;;0.10
35582;BMP180;21687;48.900;9.188;2024-01-15T08:12:58;97195.00;;;0.10
35582;BMP180;21687;48.900;9.188;2024-01-15T08:15:24;97190.00;;;0.20
35582;BMP180;21687;48.900;9.188;2024-01-15T08:17:50;97194.00;;;0.20
35582;BMP180;21687;48.900;9.188;2024-01-15T08:20:19;97191.00;;;0.10
35582;BMP180;21687;48.900;9.188;2024-01-15T08:22:46;97190.00;;;0.20
35582;BMP180;21687;48.900;9.188;2024-01-15T08:25:13;97198.00;;;0.30
35582;BMP180;21687;48.900;9.188;2024-01-15T08:27:39;97196.00;;;0.30
35582;BMP180;21687;48.900;9.188;2024-01-15T08:30:06;97197.00;;;0.30
35582;BMP180;21687;48.900;9.188;2024-01-15T08:32:33;97196.00;;;0.40
35582;BMP180;21687;48.900;9.188;2024-01-15T08:35:02;97197.00;;;0.50
35582;BMP180;21687;48.900;9.188;2024-01-15T08:37:30;97201.00;;;0.40
35582;BMP180;21687;48.900;9.188;2024-01-15T08:39:56;97194.00;;;0.50
35582;BMP180;21687;48.900;9.188;2024-01-15T08:42:23;97196.00;;;0.50
35582;BMP180;21687;48.900;9.188;2024-01-15T08:44:49;97195.00;;;0.60
35582;BMP180;21687;48.900;9.188;2024-01-15T08:47:16;97198.00;;;0.60
35582;BMP180;21687;48.900;9.188;2024-01-15T08:49:43;97199.00;;;0.70
35582;BMP180;21687;48.900;9.188;2024-01-15T08:52:11;97200.00;;;0.60
35582;BMP180;21687;48.900;9.188;2024-01-15T08:54:38;97192.00;;;0.70
35582;BMP180;21687;48.900;9.188;2024-01-15T08:57:04;97195.00;;;0.80
35582;BMP180;21687;48.900;9.188;2024-01-15T08:59:31;97194.00;;;0.90
35582;BMP180;21687;48.900;9.188;2024-01-15T09:01:57;97189.00;;;0.90
35582;BMP180;21687;48.900;9.188;2024-01-15T09:04:24;97191.00;;;1.00
35582;BMP180;21687;48.900;9.188;2024-01-15T09:06:50;97189.00;;;1.00
35582;BMP180;21687;48.900;9.188;2024-01-15T09:09:16;97203.00;;;1.10
35582;BMP180;21687;48.900;9.188;2024-01-15T09:11:43;97196.00;;;1.10
35582;BMP180;21687;48.900;9.188;2024-01-15T09:14:09;97182.00;;;1.10
35582;BMP180;21687;48.900;9.188;2024-01-15T09:16:36;97183.00;;;1.20
35582;BMP180;21687;48.900;9.188;2024-01-15T09:19:03;97183.00;;;1.20
35582;BMP180;21687;48.900;9.188;2024-01-15T09:21:30;97176.00;;;1.30
35582;BMP180;21687;48.900;9.188;2024-01-15T09:23:56;97168.00;;;1.30
35582;BMP180;21687;48.900;9.188;2024-01-15T09:26:23;97165.00;;;1.30
35582;BMP180;21687;48.900;9.188;2024-01-15T09:28:50;97176.00;;;1.30
35582;BMP180;21687;48.900;9.188;2024-01-15T09:31:16;97180.00;;;1.30
35582;BMP180;21687;48.900;9.188;2024-01-15T09:33:44;97189.00;;;1.40
35582;BMP180;21687;48.900;9.188;2024-01-15T09:36:10;97184.00;;;1.50
35582;BMP180;21687;48.900;9.188;2024-01-15T09:38:36;97183.00;;;1.40
35582;BMP180;21687;48.900;9.188;2024-01-15T09:41:02;97198.00;;;1.40
35582;BMP180;21687;48.900;9.188;2024-01-15T09:43:29;97192.00;;;1.40
35582;BMP180;21687;48.900;9.188;2024-01-15T09:45:55;97178.00;;;1.50
35582;BMP180;21687;48.900;9.188;2024-01-15T09:48:22;97183.00;;;1.40
35582;BMP180;21687;48.900;9.188;2024-01-15T09:50:50;97178.00;;;1.50
35582;BMP180;21687;48.900;9.188;2024-01-15T09:53:16;97171.00;;;1.50
35582;BMP180;21687;48.900;9.188;2024-01-15T09:55:43;97172.00;;;1.60
35582;BMP180;21687;48.900;9.188;2024-01-15T09:58:10;97171.00;;;1.60
35582;BMP180;21687;48.900;9.188;2024-01-15T10:00:37;97165.00;;;1.80
35582;BMP180;21687;48.900;9.188;2024-01-15T10:03:08;97156.00;;;1.80
35582;BMP180;21687;48.900;9.188;2024-01-15T10:05:37;97152.00;;;1.80
35582;BMP180;21687;48.900;9.188;2024-01-15T10:08:05;97150.00;;;1.70
35582;BMP180;21687;48.900;9.188;2024-01-15T10:10:31;97154.00;;;1.60
35582;BMP180;21687;48.900;9.188;2024-01-15T10:12:59;97147.00;;;1.60
35582;BMP180;21687;48.900;9.188;2024-01-15T10:15:29;97150.00;;;1.60
35582;BMP180;21687;48.900;9.188;2024-01-15T10:17:55;97137.00;;;1.60
35582;BMP180;21687;48.900;9.188;2024-01-15T10:20:22;97143.00;;;1.60
35582;BMP180;21687;48.900;9.188;2024-01-15T10:22:48;97143.00;;;1.60
35582;BMP180;21687;48.900;9.188;2024-01-15T10:25:16;97138.00;;;1.60
35582;BMP180;21687;48.900;9.188;2024-01-15T10:27:42;97128.00;;;1.60
35582;BMP180;21687;48.900;9.188;2024-01-15T10:30:10;97131.00;;;1.50
35582;BMP180;21687;48.900;9.188;2024-01-15T10:32:37;97125.00;;;1.60
35582;BMP180;21687;48.900;9.188;2024-01-15T10:35:04;97126.00;;;1.50
35582;BMP180;21687;48.900;9.188;2024-01-15T10:37:33;97114.00;;;1.50
35582;BMP180;21687;48.900;9.188;2024-01-15T10:40:02;97121.00;;;1.40
35582;BMP180;21687;48.900;9.188;2024-01-15T10:42:31;97121.00;;;1.40
35582;BMP180;21687;48.900;9.188;2024-01-15T10:44:57;97101.00;;;1.30
35582;BMP180;21687;48.900;9.188;2024-01-15T10:47:23;97105.00;;;1.30
35582;BMP180;21687;48.900;9.188;2024-01-15T10:49:50;97108.00;;;1.30
35582;BMP180;21687;48.900;9.188;2024-01-15T10:52:17;97115.00;;;1.20
35582;BMP180;21687;48.900;9.188;2024-01-15T10:54:44;97118.00;;;1.20
35582;BMP180;21687;48.900;9.188;2024-01-15T10:57:11;97114.00;;;1.10
35582;BMP180;21687;48.900;9.188;2024-01-15T10:59:39;97101.00;;;1.10
35582;BMP180;21687;48.900;9.188;2024-01-15T11:02:05;97107.00;;;1.10
35582;BMP180;21687;48.900;9.188;2024-01-15T11:04:32;97105.00;;;1.00
35582;BMP180;21687;48.900;9.188;2024-01-15T11:06:59;97099.00;;;0.90
35582;BMP180;21687;48.900;9.188;2024-01-15T11:09:26;97106.00;;;0.70
35582;BMP180;21687;48.900;9.188;2024-01-15T11:12:10;97098.00;;;0.70
35582;BMP180;21687;48.900;9.188;2024-01-15T11:14:40;97106.00;;;0.60
35582;BMP180;21687;48.900;9.188;2024-01-15T11:17:10;97107.00;;;0.50
35582;BMP180;21687;48.900;9.188;2024-01-15T11:22:08;97098.00;;;0.30
35582;BMP180;21687;48.900;9.188;2024-01-15T11:24:39;97096.00;;;0.20
35582;BMP180;21687;48.900;9.188;2024-01-15T11:27:07;97100.00;;;0.10
35582;BMP180;21687;48.900;9.188;2024-01-15T11:29:37;97090.00;;;0.00
35582;BMP180;21687;48.900;9.188;2024-01-15T11:32:05;97082.00;;;0.10
35582;BMP180;21687;48.900;9.188;2024-01-15T11:37:20;97078.00;;;0.20
35582;BMP180;21687;48.900;9.188;2024-01-15T11:39:47;97061.00;;;0.20
35582;BMP180;21687;48.900;9.188;2024-01-15T11:42:15;97074.00;;;0.20
35582;BMP180;21687;48.900;9.188;2024-01-15T11:44:43;97078.00;;;0.30
35582;BMP180;21687;48.900;9.188;2024-01-15T11:47:11;97078.00;;;0.30
35582;BMP180;21687;48.900;9.188;2024-01-15T11:52:21;97088.00;;;0.30
35582;BMP180;21687;48.900;9.188;2024-01-15T11:55:12;97090.00;;;0.20
35582;BMP180;21687;48.900;9.188;2024-01-15T12:00:11;97092.00;;;0.10
35582;BMP180;21687;48.900;9.188;2024-01-15T12:02:42;97081.00;;;0.10
35582;BMP180;21687;48.900;9.188;2024-01-15T12:05:13;97096.00;;;0.10
35582;BMP180;21687;48.900;9.188;2024-01-15T12:07:41;97085.00;;;0.10
35582;BMP180;21687;48.900;9.188;2024-01-15T12:10:10;97087.00;;;0.10
35582;BMP180;21687;48.900;9.188;2024-01-15T12:12:50;97071.00;;;0.10
35582;BMP180;21687;48.900;9.188;2024-01-15T12:15:19;97082.00;;;0.10
35582;BMP180;21687;48.900;9.188;2024-01-15T12:17:46;97088.00;;;0.00
35582;BMP180;21687;48.900;9.188;2024-01-15T12:20:13;97085.00;;;0.00
35582;BMP180;21687;48.900;9.188;2024-01-15T12:22:41;97084.00;;;0.10
35582;BMP180;21687;48.900;9.188;2024-01-15T12:25:08;97083.00;;;0.00
35582;BMP180;21687;48.900;9.188;2024-01-15T12:27:34;97077.00;;;0.00
35582;BMP180;21687;48.900;9.188;2024-01-15T12:30:01;97080.00;;;0.10
35582;BMP180;21687;48.900;9.188;2024-01-15T12:32:27;97076.00;;;0.10
35582;BMP180;21687;48.900;9.188;2024-01-15T12:34:54;97088.00;;;0.10
35582;BMP180;21687;48.900;9.188;2024-01-15T12:37:21;97088.00;;;0.20
35582;BMP180;21687;48.900;9.188;2024-01-15T12:39:48;97086.00;;;0.20
35582;BMP180;21687;48.900;9.188;2024-01-15T12:42:15;97096.00;;;0.20
35582;BMP180;21687;48.900;9.188;2024-01-15T12:44:44;97089.00;;;0.20
35582;BMP180;21687;48.900;9.188;2024-01-15T12:47:11;97090.00;;;0.20
35582;BMP180;21687;48.900;9.188;2024-01-15T12:49:38;97093.00;;;0.20
35582;BMP180;21687;48.900;9.188;2024-01-15T12:52:08;97072.00;;;0.20
35582;BMP180;21687;48.900;9.188;2024-01-15T12:54:35;97088.00;;;0.20
35582;BMP180;21687;48.900;9.188;2024-01-15T12:57:02;97095.00;;;0.20
35582;BMP180;21687;48.900;9.188;2024-01-15T12:59:29;97100.00;;;0.10
35582;BMP180;21687;48.900;9.188;2024-01-15T13:01:56;97094.00;;;0.20
35582;BMP180;21687;48.900;9.188;2024-01-15T13:04:23;97093.00;;;0.20
35582;BMP180;21687;48.900;9.188;2024-01-15T13:06:50;97096.00;;;0.20
35582;BMP180;21687;48.900;9.188;2024-01-15T13:09:17;97090.00;;;0.20
35582;BMP180;21687;48.900;9.188;2024-01-15T13:11:47;97112.00;;;0.20
35582;BMP180;21687;48.900;9.188;2024-01-15T13:14:14;97119.00;;;0.20
35582;BMP180;21687;48.900;9.188;2024-01-15T13:16:43;97109.00;;;0.20
35582;BMP180;21687;48.900;9.188;2024-01-15T13:19:10;97096.00;;;0.20
35582;BMP180;21687;48.900;9.188;2024-01-15T13:21:41;97108.00;;;0.10
35582;BMP180;21687;48.900;9.188;2024-01-15T13:24:07;97119.00;;;0.10
35582;BMP180;21687;48.900;9.188;2024-01-15T13:26:34;97128.00;;;0.20
35582;BMP180;21687;48.900;9.188;2024-01-15T13:29:06;97119.00;;;0.10
35582;BMP180;21687;48.900;9.188;2024-01-15T13:31:33;97124.00;;;0.20
35582;BMP180;21687;48.900;9.188;2024-01-15T13:34:00;97135.00;;;0.10
35582;BMP180;21687;48.900;9.188;2024-01-15T13:36:27;97121.00;;;0.10
35582;BMP180;21687;48.900;9.188;2024-01-15T13:39:05;97121.00;;;0.20
35582;BMP180;21687;48.900;9.188;2024-01-15T13:41:38;97133.00;;;0.20
35582;BMP180;21687;48.900;9.188;2024-01-15T13:44:04;97132.00;;;0.20
35582;BMP180;21687;48.900;9.188;2024-01-15T13:46:34;97135.00;;;0.20
35582;BMP180;21687;48.900;9.188;2024-01-15T13:49:03;97130.00;;;0.20
35582;BMP180;21687;48.900;9.188;2024-01-15T13:51:32;97149.00;;;0.20
35582;BMP180;21687;48.900;9.188;2024-01-15T13:54:02;97153.00;;;0.10
35582;BMP180;21687;48.900;9.188;2024-01-15T13:56:34;97151.00;;;0.20
35582;BMP180;21687;48.900;9.188;2024-01-15T13:59:02;97144.00;;;0.10
35582;BMP180;21687;48.900;9.188;2024-01-15T14:01:33;97150.00;;;0.20
35582;BMP180;21687;48.900;9.188;2024-01-15T14:04:03;97156.00;;;0.10
35582;BMP180;21687;48.900;9.188;2024-01-15T14:06:33;97155.00;;;0.10
35582;BMP180;21687;48.900;9.188;2024-01-15T14:09:05;97166.00;;;0.20
35582;BMP180;21687;48.900;9.188;2024-01-15T14:11:57;97162.00;;;0.10
35582;BMP180;21687;48.900;9.188;2024-01-15T14:14:42;97171.00;;;0.10
35582;BMP180;21687;48.900;9.188;2024-01-15T14:17:57;97172.00;;;0.10
35582;BMP180;21687;48.900;9.188;2024-01-15T14:28:34;97177.00;;;0.00
35582;BMP180;21687;48.900;9.188;2024-01-15T14:31:03;97191.00;;;0.00
35582;BMP180;21687;48.900;9.188;2024-01-15T14:44:18;97225.00;;;-0.10